createdAt,value
2023-09-23T00:00:18.840Z,962.6200
2023-09-23T00:01:21.096Z,962.6200
2023-09-23T00:02:23.420Z,962.6400
2023-09-23T00:03:25.752Z,962.6400
2023-09-23T00:04:27.932Z,962.6800
2023-09-23T00:05:28.095Z,962.6400
2023-09-23T00:06:30.205Z,962.6600
2023-09-23T00:07:32.511Z,962.6600
2023-09-23T00:08:34.690Z,962.6800
2023-09-23T00:09:36.924Z,962.6800
2023-09-23T00:10:39.196Z,962.7000
2023-09-23T00:11:41.306Z,962.7200
2023-09-23T00:12:43.580Z,962.7400
2023-09-23T00:13:45.895Z,962.7400
2023-09-23T00:14:48.033Z,962.7400
2023-09-23T00:15:48.092Z,962.7400
2023-09-23T00:16:50.411Z,962.8000
2023-09-23T00:17:52.560Z,962.8000
2023-09-23T00:18:54.773Z,962.8000
2023-09-23T00:20:04.495Z,962.8200
2023-09-23T00:22:05.847Z,962.8200
2023-09-23T00:23:08.145Z,962.8800
2023-09-23T00:24:10.173Z,962.8800
2023-09-23T00:25:12.354Z,962.8800
2023-09-23T00:26:14.563Z,962.8800
2023-09-23T00:27:16.717Z,962.9000
2023-09-23T00:28:18.957Z,962.9200
2023-09-23T00:29:19.024Z,962.9600
2023-09-23T00:30:21.217Z,963.0000
2023-09-23T00:31:23.417Z,963.0300
2023-09-23T00:32:25.680Z,963.1100
2023-09-23T00:33:27.854Z,963.1100
2023-09-23T00:34:30.089Z,963.1300
2023-09-23T00:35:32.308Z,963.1300
2023-09-23T00:36:34.485Z,963.1300
2023-09-23T00:37:36.699Z,963.0700
2023-09-23T00:38:39.002Z,963.0500
2023-09-23T00:39:41.161Z,963.0500
2023-09-23T00:40:43.398Z,963.0900
2023-09-23T00:41:45.527Z,963.1100
2023-09-23T00:42:47.708Z,963.1300
2023-09-23T00:43:50.022Z,963.1300
2023-09-23T00:44:52.075Z,963.1500
2023-09-23T00:45:52.104Z,963.1900
2023-09-23T00:46:54.328Z,963.1900
2023-09-23T00:47:56.489Z,963.1900
2023-09-23T00:48:58.694Z,963.2300
2023-09-23T00:50:00.900Z,963.2100
2023-09-23T00:51:03.038Z,963.2100
2023-09-23T00:52:05.245Z,963.1900
2023-09-23T00:53:07.578Z,963.1700
2023-09-23T00:54:09.740Z,963.1700
2023-09-23T00:55:11.983Z,963.1500
2023-09-23T00:56:14.272Z,963.1500
2023-09-23T00:57:16.492Z,963.1700
2023-09-23T00:58:18.738Z,963.1700
2023-09-23T00:59:18.843Z,963.1700
2023-09-23T01:00:21.058Z,963.1900
2023-09-23T01:01:23.274Z,963.1900
2023-09-23T01:02:25.567Z,963.2100
2023-09-23T01:03:27.740Z,963.2100
2023-09-23T01:04:29.949Z,963.2100
2023-09-23T01:05:32.226Z,963.1500
2023-09-23T01:06:34.472Z,963.1500
2023-09-23T01:07:36.750Z,963.1100
2023-09-23T01:08:38.938Z,963.1300
2023-09-23T01:09:41.219Z,963.1100
2023-09-23T01:10:41.510Z,963.1300
2023-09-23T01:11:43.540Z,963.1300
2023-09-23T01:12:45.707Z,963.1100
2023-09-23T01:13:47.972Z,963.1300
2023-09-23T01:14:50.179Z,963.1100
2023-09-23T01:15:52.444Z,963.1100
2023-09-23T01:16:54.633Z,963.1300
2023-09-23T01:17:56.849Z,963.1700
2023-09-23T01:18:58.991Z,963.1900
2023-09-23T01:20:01.296Z,963.2100
2023-09-23T01:21:03.425Z,963.2100
2023-09-23T01:22:03.471Z,963.2500
2023-09-23T01:23:05.722Z,963.2700
2023-09-23T01:24:07.914Z,963.2900
2023-09-23T01:25:10.276Z,963.3100
2023-09-23T01:26:12.466Z,963.3100
2023-09-23T01:27:14.631Z,963.3300
2023-09-23T01:28:16.829Z,963.3100
2023-09-23T01:29:19.265Z,963.3500
2023-09-23T01:30:21.329Z,963.3300
2023-09-23T01:31:23.857Z,963.3500
2023-09-23T01:32:25.873Z,963.3500
2023-09-23T01:33:25.886Z,963.3900
2023-09-23T01:34:28.036Z,963.3700
2023-09-23T01:35:30.314Z,963.3500
2023-09-23T01:36:32.516Z,963.3700
2023-09-23T01:37:34.669Z,963.3900
2023-09-23T01:38:36.904Z,963.3900
2023-09-23T01:39:39.156Z,963.3900
2023-09-23T01:40:41.435Z,963.4300
2023-09-23T01:41:43.643Z,963.4500
2023-09-23T01:42:45.826Z,963.4500
2023-09-23T01:43:48.075Z,963.4800
2023-09-23T01:44:50.373Z,963.4700
2023-09-23T01:45:52.556Z,963.5000
2023-09-23T01:46:52.717Z,963.4800
2023-09-23T01:47:54.843Z,963.5200
2023-09-23T01:48:56.979Z,963.5400
2023-09-23T01:49:59.247Z,963.5800
2023-09-23T01:51:01.418Z,963.5800
2023-09-23T01:52:03.620Z,963.6200
2023-09-23T01:53:05.935Z,963.6200
2023-09-23T01:54:08.002Z,963.6000
2023-09-23T01:55:10.212Z,963.6200
2023-09-23T01:56:12.509Z,963.6000
2023-09-23T01:57:14.667Z,963.6200
2023-09-23T01:58:16.874Z,963.6200
2023-09-23T01:59:19.149Z,963.6400
2023-09-23T02:00:21.272Z,963.6400
2023-09-23T02:01:23.562Z,963.6200
2023-09-23T02:02:23.652Z,963.6400
2023-09-23T02:03:26.018Z,963.6200
2023-09-23T02:04:28.028Z,963.6200
2023-09-23T02:05:30.209Z,963.6000
2023-09-23T02:06:32.447Z,963.6200
2023-09-23T02:07:34.649Z,963.6000
2023-09-23T02:08:36.813Z,963.6200
2023-09-23T02:09:38.965Z,963.6400
2023-09-23T02:11:30.669Z,963.6400
2023-09-23T02:12:32.808Z,963.6400
2023-09-23T02:13:34.992Z,963.6400
2023-09-23T02:14:37.191Z,963.6200
2023-09-23T02:15:39.416Z,963.6400
2023-09-23T02:16:41.648Z,963.6800
2023-09-23T02:17:43.982Z,963.6800
2023-09-23T02:18:46.200Z,963.6800
2023-09-23T02:19:46.138Z,963.6800
2023-09-23T02:20:48.316Z,963.7400
2023-09-23T02:21:50.513Z,963.7200
2023-09-23T02:22:52.785Z,963.7000
2023-09-23T02:23:54.940Z,963.7200
2023-09-23T02:24:57.153Z,963.7200
2023-09-23T02:25:59.400Z,963.7000
2023-09-23T02:27:01.646Z,963.7400
2023-09-23T02:28:03.952Z,963.7400
2023-09-23T02:29:06.205Z,963.7600
2023-09-23T02:30:08.421Z,963.7600
2023-09-23T02:31:10.842Z,963.7600
2023-09-23T02:32:10.837Z,963.7400
2023-09-23T02:33:13.121Z,963.7400
2023-09-23T02:34:15.381Z,963.7600
2023-09-23T02:35:17.792Z,963.7400
2023-09-23T02:36:19.929Z,963.7600
2023-09-23T02:37:22.171Z,963.8000
2023-09-23T02:38:24.526Z,963.8200
2023-09-23T02:39:26.689Z,963.8200
2023-09-23T02:40:26.825Z,963.8600
2023-09-23T02:41:29.074Z,963.8600
2023-09-23T02:42:31.354Z,963.8800
2023-09-23T02:43:33.636Z,963.8800
2023-09-23T02:44:35.891Z,963.9000
2023-09-23T02:45:38.121Z,963.9000
2023-09-23T02:46:40.452Z,963.9200
2023-09-23T02:47:42.701Z,963.9500
2023-09-23T02:48:42.767Z,963.9400
2023-09-23T02:49:45.043Z,963.9700
2023-09-23T02:50:47.201Z,963.9700
2023-09-23T02:51:49.437Z,964.0100
2023-09-23T02:52:52.054Z,964.0100
2023-09-23T02:53:54.032Z,964.0300
2023-09-23T02:54:56.247Z,964.0300
2023-09-23T02:55:58.535Z,964.0100
2023-09-23T02:57:00.800Z,964.0300
2023-09-23T02:58:00.950Z,964.0300
2023-09-23T02:59:03.253Z,964.0100
2023-09-23T03:00:05.409Z,963.9700
2023-09-23T03:01:07.669Z,963.9900
2023-09-23T03:02:09.985Z,963.9900
2023-09-23T03:03:12.218Z,964.0300
2023-09-23T03:04:14.456Z,964.0300
2023-09-23T03:05:16.591Z,964.0300
2023-09-23T03:06:18.752Z,964.0300
2023-09-23T03:07:20.953Z,964.0300
2023-09-23T03:08:21.083Z,964.0300
2023-09-23T03:09:23.276Z,964.0300
2023-09-23T03:10:25.364Z,964.0500
2023-09-23T03:11:27.533Z,964.0300
2023-09-23T03:12:29.714Z,964.0700
2023-09-23T03:13:31.888Z,964.0900
2023-09-23T03:14:34.228Z,964.1100
2023-09-23T03:15:36.311Z,964.1100
2023-09-23T03:16:38.586Z,964.1300
2023-09-23T03:17:40.841Z,964.1500
2023-09-23T03:18:42.899Z,964.1500
2023-09-23T03:19:45.199Z,964.1300
2023-09-23T03:20:48.368Z,964.1700
2023-09-23T03:21:49.584Z,964.1500
2023-09-23T03:22:51.823Z,964.1700
2023-09-23T03:23:53.964Z,964.2100
2023-09-23T03:24:56.252Z,964.1900
2023-09-23T03:25:56.303Z,964.1700
2023-09-23T03:26:58.492Z,964.1700
2023-09-23T03:28:00.738Z,964.2100
2023-09-23T03:29:02.946Z,964.1900
2023-09-23T03:30:05.209Z,964.2100
2023-09-23T03:31:07.318Z,964.1900
2023-09-23T03:32:09.609Z,964.2100
2023-09-23T03:33:11.728Z,964.2100
2023-09-23T03:34:13.916Z,964.2100
2023-09-23T03:35:16.191Z,964.1900
2023-09-23T03:36:18.332Z,964.2100
2023-09-23T03:37:20.501Z,964.1900
2023-09-23T03:38:22.850Z,964.1900
2023-09-23T03:39:24.881Z,964.2300
2023-09-23T03:40:27.108Z,964.2300
2023-09-23T03:41:29.290Z,964.2700
2023-09-23T03:42:31.402Z,964.2900
2023-09-23T03:43:31.417Z,964.3300
2023-09-23T03:44:33.598Z,964.3500
2023-09-23T03:45:36.036Z,964.3500
2023-09-23T03:46:37.956Z,964.3700
2023-09-23T03:47:40.187Z,964.3700
2023-09-23T03:48:42.371Z,964.3700
2023-09-23T03:49:44.559Z,964.3900
2023-09-23T03:50:46.737Z,964.3900
2023-09-23T03:51:48.959Z,964.4100
2023-09-23T03:52:51.166Z,964.4800
2023-09-23T03:53:53.406Z,964.5000
2023-09-23T03:54:55.534Z,964.5300
2023-09-23T03:55:57.795Z,964.5300
2023-09-23T03:56:59.861Z,964.5500
2023-09-23T03:58:02.041Z,964.5600
2023-09-23T03:59:04.173Z,964.5500
2023-09-23T04:00:06.322Z,964.5800
2023-09-23T04:01:08.432Z,964.5600
2023-09-23T04:02:10.603Z,964.5600
2023-09-23T04:03:12.775Z,964.5800
2023-09-23T04:04:14.854Z,964.5600
2023-09-23T04:05:17.035Z,964.5600
2023-09-23T04:06:19.202Z,964.5800
2023-09-23T04:07:21.361Z,964.6000
2023-09-23T04:08:23.622Z,964.6000
2023-09-23T04:09:25.723Z,964.6200
2023-09-23T04:10:27.961Z,964.6200
2023-09-23T04:11:28.044Z,964.6600
2023-09-23T04:12:30.220Z,964.6600
2023-09-23T04:13:32.356Z,964.7000
2023-09-23T04:14:34.517Z,964.7000
2023-09-23T04:15:36.620Z,964.7200
2023-09-23T04:16:38.803Z,964.7400
2023-09-23T04:17:40.909Z,964.7600
2023-09-23T04:18:43.040Z,964.7400
2023-09-23T04:19:45.228Z,964.7200
2023-09-23T04:20:47.398Z,964.7200
2023-09-23T04:21:49.619Z,964.7400
2023-09-23T04:22:51.785Z,964.7400
2023-09-23T04:23:53.912Z,964.7600
2023-09-23T04:24:56.092Z,964.7600
2023-09-23T04:25:58.297Z,964.7800
2023-09-23T04:27:00.487Z,964.7800
2023-09-23T04:28:02.553Z,964.7800
2023-09-23T04:29:04.730Z,964.7400
2023-09-23T04:30:06.868Z,964.7400
2023-09-23T04:31:09.033Z,964.7600
2023-09-23T04:32:11.231Z,964.7600
2023-09-23T04:33:13.679Z,964.7600
2023-09-23T04:34:15.523Z,964.8000
2023-09-23T04:35:17.831Z,964.8200
2023-09-23T04:37:35.051Z,964.8400
2023-09-23T04:38:37.149Z,964.8200
2023-09-23T04:39:39.337Z,964.8600
2023-09-23T04:40:39.330Z,964.8600
2023-09-23T04:41:41.525Z,964.8800
2023-09-23T04:42:43.756Z,964.8600
2023-09-23T04:43:45.886Z,964.8600
2023-09-23T04:44:48.060Z,964.8800
2023-09-23T04:45:50.349Z,964.8800
2023-09-23T04:46:52.656Z,964.8800
2023-09-23T04:47:54.835Z,964.8200
2023-09-23T04:48:57.048Z,964.8600
2023-09-23T04:49:59.356Z,964.8800
2023-09-23T04:51:01.486Z,964.9200
2023-09-23T04:52:03.653Z,964.9400
2023-09-23T04:53:05.885Z,964.9000
2023-09-23T04:54:08.070Z,964.9200
2023-09-23T04:55:08.171Z,964.9000
2023-09-23T04:56:10.411Z,964.9200
2023-09-23T04:57:12.613Z,964.9200
2023-09-23T04:58:14.920Z,964.9400
2023-09-23T04:59:17.138Z,964.9400
2023-09-23T05:00:19.356Z,964.9600
2023-09-23T05:01:21.585Z,964.9400
2023-09-23T05:02:23.870Z,964.9800
2023-09-23T05:03:26.089Z,965.0000
2023-09-23T05:04:28.361Z,965.0200
2023-09-23T05:05:30.465Z,965.0200
2023-09-23T05:06:32.618Z,965.0500
2023-09-23T05:07:34.821Z,965.0500
2023-09-23T05:08:34.839Z,965.1100
2023-09-23T05:09:36.950Z,965.1300
2023-09-23T05:10:39.163Z,965.1500
2023-09-23T05:11:41.297Z,965.1700
2023-09-23T05:12:43.494Z,965.1900
2023-09-23T05:13:45.783Z,965.1900
2023-09-23T05:14:47.932Z,965.2100
2023-09-23T05:15:50.184Z,965.2100
2023-09-23T05:16:52.316Z,965.1900
2023-09-23T05:17:54.582Z,965.2100
2023-09-23T05:18:56.864Z,965.2100
2023-09-23T05:19:59.000Z,965.2100
2023-09-23T05:21:01.130Z,965.2100
2023-09-23T05:22:03.299Z,965.2300
2023-09-23T05:23:05.568Z,965.2500
2023-09-23T05:24:05.614Z,965.2900
2023-09-23T05:25:07.792Z,965.2900
2023-09-23T05:26:10.057Z,965.3100
2023-09-23T05:27:12.234Z,965.3300
2023-09-23T05:28:14.455Z,965.3300
2023-09-23T05:29:16.803Z,965.3300
2023-09-23T05:30:18.900Z,965.3100
2023-09-23T05:31:21.155Z,965.3300
2023-09-23T05:32:23.407Z,965.3100
2023-09-23T05:33:25.562Z,965.3300
2023-09-23T05:34:27.922Z,965.3100
2023-09-23T05:35:30.015Z,965.3300
2023-09-23T05:36:32.233Z,965.3500
2023-09-23T05:37:32.317Z,965.3300
2023-09-23T05:38:34.544Z,965.3500
2023-09-23T05:39:36.817Z,965.3700
2023-09-23T05:40:39.016Z,965.3500
2023-09-23T05:41:41.209Z,965.3700
2023-09-23T05:42:43.428Z,965.3900
2023-09-23T05:43:45.715Z,965.4100
2023-09-23T05:44:47.886Z,965.4100
2023-09-23T05:45:50.044Z,965.4100
2023-09-23T05:46:52.332Z,965.4400
2023-09-23T05:47:54.857Z,965.4400
2023-09-23T05:48:56.741Z,965.4600
2023-09-23T05:49:56.879Z,965.4600
2023-09-23T05:50:59.050Z,965.4600
2023-09-23T05:52:01.273Z,965.4800
2023-09-23T05:53:03.635Z,965.4800
2023-09-23T05:54:05.722Z,965.4800
2023-09-23T05:55:08.089Z,965.5000
2023-09-23T05:56:10.245Z,965.5000
2023-09-23T05:57:12.448Z,965.5200
2023-09-23T05:58:14.639Z,965.5200
2023-09-23T05:59:16.927Z,965.5400
2023-09-23T06:00:19.271Z,965.5600
2023-09-23T06:01:21.384Z,965.5800
2023-09-23T06:02:21.478Z,965.6000
2023-09-23T06:03:23.696Z,965.6000
2023-09-23T06:04:25.859Z,965.6400
2023-09-23T06:05:28.898Z,965.6400
2023-09-23T06:06:30.344Z,965.6800
2023-09-23T06:07:32.600Z,965.6600
2023-09-23T06:08:34.834Z,965.7000
2023-09-23T06:09:37.092Z,965.7200
2023-09-23T06:10:39.375Z,965.7000
2023-09-23T06:11:41.618Z,965.7200
2023-09-23T06:12:43.848Z,965.7600
2023-09-23T06:13:44.083Z,965.7600
2023-09-23T06:14:46.143Z,965.8000
2023-09-23T06:15:48.489Z,965.7800
2023-09-23T06:16:50.754Z,965.8000
2023-09-23T06:17:53.076Z,965.7600
2023-09-23T06:19:59.786Z,965.7600
2023-09-23T06:21:01.925Z,965.7400
2023-09-23T06:22:02.998Z,965.7600
2023-09-23T06:23:05.222Z,965.7200
2023-09-23T06:24:07.420Z,965.7600
2023-09-23T06:25:09.575Z,965.7600
2023-09-23T06:26:11.882Z,965.7800
2023-09-23T06:27:13.968Z,965.7800
2023-09-23T06:28:16.181Z,965.8200
2023-09-23T06:29:18.340Z,965.8200
2023-09-23T06:30:20.500Z,965.8600
2023-09-23T06:31:22.736Z,965.8800
2023-09-23T06:32:24.921Z,965.8800
2023-09-23T06:33:26.898Z,965.9100
2023-09-23T06:34:29.048Z,965.9300
2023-09-23T06:35:31.250Z,965.9100
2023-09-23T06:36:33.558Z,965.9500
2023-09-23T06:37:33.485Z,965.9900
2023-09-23T06:38:35.719Z,966.0100
2023-09-23T06:39:37.893Z,965.9900
2023-09-23T06:40:40.160Z,966.0100
2023-09-23T06:41:42.383Z,966.0100
2023-09-23T06:42:42.481Z,966.0300
2023-09-23T06:43:45.033Z,966.0500
2023-09-23T06:44:47.057Z,966.0500
2023-09-23T06:45:49.354Z,966.0700
2023-09-23T06:46:49.576Z,966.0700
2023-09-23T06:47:51.942Z,966.1100
2023-09-23T06:48:54.081Z,966.1300
2023-09-23T06:49:56.384Z,966.1100
2023-09-23T06:50:58.707Z,966.1300
2023-09-23T06:52:01.072Z,966.1500
2023-09-23T06:53:03.327Z,966.1900
2023-09-23T06:54:03.354Z,966.2100
2023-09-23T06:55:05.672Z,966.2300
2023-09-23T06:56:08.033Z,966.2700
2023-09-23T06:57:10.247Z,966.2700
2023-09-23T06:58:10.311Z,966.2700
2023-09-23T06:59:12.603Z,966.2900
2023-09-23T07:00:14.851Z,966.3100
2023-09-23T07:01:17.223Z,966.3300
2023-09-23T07:02:17.459Z,966.3500
2023-09-23T07:03:19.860Z,966.3600
2023-09-23T07:04:21.993Z,966.4000
2023-09-23T07:05:24.219Z,966.4000
2023-09-23T07:06:26.512Z,966.3800
2023-09-23T07:07:28.841Z,966.4000
2023-09-23T07:08:31.215Z,966.4200
2023-09-23T07:09:33.424Z,966.4200
2023-09-23T07:10:35.712Z,966.4400
2023-09-23T07:11:38.010Z,966.4400
2023-09-23T07:12:38.160Z,966.4600
2023-09-23T07:13:40.426Z,966.4800
2023-09-23T07:14:42.707Z,966.4800
2023-09-23T07:15:45.014Z,966.5200
2023-09-23T07:16:47.485Z,966.5200
2023-09-23T07:17:49.592Z,966.5400
2023-09-23T07:18:51.763Z,966.5600
2023-09-23T07:19:54.029Z,966.6000
2023-09-23T07:20:56.177Z,966.6200
2023-09-23T07:21:58.379Z,966.6400
2023-09-23T07:23:00.620Z,966.6600
2023-09-23T07:24:04.754Z,966.6800
2023-09-23T07:25:04.996Z,966.6800
2023-09-23T07:26:07.319Z,966.7000
2023-09-23T07:27:09.386Z,966.7000
2023-09-23T07:28:11.665Z,966.7000
2023-09-23T07:29:13.758Z,966.7400
2023-09-23T07:30:18.336Z,966.7400
2023-09-23T07:31:18.246Z,966.7400
2023-09-23T07:32:20.464Z,966.8000
2023-09-23T07:33:22.649Z,966.7600
2023-09-23T07:34:24.850Z,966.7800
2023-09-23T07:35:27.049Z,966.7800
2023-09-23T07:36:29.249Z,966.8000
2023-09-23T07:37:31.433Z,966.8000
2023-09-23T07:38:33.749Z,966.8300
2023-09-23T07:39:33.804Z,966.8500
2023-09-23T07:40:36.095Z,966.8500
2023-09-23T07:41:38.368Z,966.8700
2023-09-23T07:42:40.662Z,966.8900
2023-09-23T07:43:40.816Z,966.8900
2023-09-23T07:44:43.076Z,966.9100
2023-09-23T07:45:45.395Z,966.9100
2023-09-23T07:46:47.651Z,966.9300
2023-09-23T07:47:49.926Z,966.9300
2023-09-23T07:48:52.297Z,966.9700
2023-09-23T07:49:54.422Z,966.9700
2023-09-23T07:50:56.640Z,967.0700
2023-09-23T07:51:58.825Z,967.1100
2023-09-23T07:53:01.082Z,967.1500
2023-09-23T07:54:03.290Z,967.1900
2023-09-23T07:55:05.503Z,967.1900
2023-09-23T07:56:07.768Z,967.1900
2023-09-23T07:57:09.982Z,967.2100
2023-09-23T07:59:41.360Z,967.2500
2023-09-23T08:00:42.446Z,967.3100
2023-09-23T08:01:44.781Z,967.3100
2023-09-23T08:02:47.016Z,967.3500
2023-09-23T08:03:49.273Z,967.3500
2023-09-23T08:04:51.486Z,967.3600
2023-09-23T08:05:53.633Z,967.4000
2023-09-23T08:06:55.771Z,967.4200
2023-09-23T08:07:55.886Z,967.4400
2023-09-23T08:08:58.154Z,967.4400
2023-09-23T08:10:00.404Z,967.4600
2023-09-23T08:11:02.773Z,967.4600
2023-09-23T08:12:04.930Z,967.4600
2023-09-23T08:13:07.206Z,967.4600
2023-09-23T08:14:09.524Z,967.4800
2023-09-23T08:15:11.763Z,967.5000
2023-09-23T08:16:11.886Z,967.4800
2023-09-23T08:17:14.157Z,967.5000
2023-09-23T08:18:16.422Z,967.4800
2023-09-23T08:19:18.673Z,967.4800
2023-09-23T08:20:21.111Z,967.5000
2023-09-23T08:21:23.211Z,967.5000
2023-09-23T08:22:25.405Z,967.4800
2023-09-23T08:23:27.647Z,967.5000
2023-09-23T08:24:29.825Z,967.4800
2023-09-23T08:25:32.063Z,967.4800
2023-09-23T08:26:34.244Z,967.5000
2023-09-23T08:27:36.420Z,967.5200
2023-09-23T08:28:36.586Z,967.5400
2023-09-23T08:29:38.853Z,967.5200
2023-09-23T08:30:41.153Z,967.6000
2023-09-23T08:31:43.474Z,967.5600
2023-09-23T08:32:45.795Z,967.5800
2023-09-23T08:33:48.221Z,967.5800
2023-09-23T08:34:50.405Z,967.6000
2023-09-23T08:35:52.685Z,967.6000
2023-09-23T08:36:54.823Z,967.6000
2023-09-23T08:37:57.107Z,967.6000
2023-09-23T08:38:59.386Z,967.6200
2023-09-23T08:40:01.664Z,967.6200
2023-09-23T08:41:04.013Z,967.6200
2023-09-23T08:42:04.067Z,967.6200
2023-09-23T08:43:06.316Z,967.6200
2023-09-23T08:44:08.589Z,967.6400
2023-09-23T08:45:10.871Z,967.6600
2023-09-23T08:46:13.154Z,967.6600
2023-09-23T08:47:15.259Z,967.6600
2023-09-23T08:48:17.462Z,967.6800
2023-09-23T08:49:19.629Z,967.7000
2023-09-23T08:50:21.968Z,967.6800
2023-09-23T08:51:24.134Z,967.6600
2023-09-23T08:52:26.281Z,967.7000
2023-09-23T08:53:28.561Z,967.7000
2023-09-23T08:54:28.821Z,967.7000
2023-09-23T08:55:30.886Z,967.7200
2023-09-23T08:56:33.160Z,967.7600
2023-09-23T08:57:35.370Z,967.8000
2023-09-23T08:58:37.574Z,967.8000
2023-09-23T08:59:39.770Z,967.8200
2023-09-23T09:00:41.961Z,967.8000
2023-09-23T09:01:44.272Z,967.8200
2023-09-23T09:02:46.451Z,967.8500
2023-09-23T09:03:48.733Z,967.8300
2023-09-23T09:04:50.994Z,967.8300
2023-09-23T09:05:53.279Z,967.8300
2023-09-23T09:06:55.506Z,967.8200
2023-09-23T09:07:57.692Z,967.8500
2023-09-23T09:08:59.910Z,967.8500
2023-09-23T09:10:02.176Z,967.8500
2023-09-23T09:11:04.506Z,967.8300
2023-09-23T09:12:06.664Z,967.8500
2023-09-23T09:13:08.821Z,967.8500
2023-09-23T09:14:11.064Z,967.8700
2023-09-23T09:16:39.313Z,967.8500
2023-09-23T09:17:41.515Z,967.8200
2023-09-23T09:18:43.758Z,967.8500
2023-09-23T09:19:47.389Z,967.8700
2023-09-23T09:20:48.201Z,967.8700
2023-09-23T09:21:50.452Z,967.9100
2023-09-23T09:22:52.839Z,967.9300
2023-09-23T09:23:54.880Z,967.9300
2023-09-23T09:24:57.162Z,967.9500
2023-09-23T09:25:57.331Z,967.9700
2023-09-23T09:26:59.573Z,967.9900
2023-09-23T09:28:01.884Z,967.9900
2023-09-23T09:29:04.138Z,967.9700
2023-09-23T09:30:14.114Z,967.9700
2023-09-23T09:31:08.600Z,967.9500
2023-09-23T09:32:10.886Z,967.9300
2023-09-23T09:33:13.110Z,967.9500
2023-09-23T09:34:15.341Z,967.9500
2023-09-23T09:35:17.577Z,967.9300
2023-09-23T09:36:18.378Z,967.9100
2023-09-23T09:37:19.809Z,967.9500
2023-09-23T09:38:22.045Z,967.9500
2023-09-23T09:39:23.987Z,967.9300
2023-09-23T09:40:26.000Z,967.9500
2023-09-23T09:41:28.131Z,967.9500
2023-09-23T09:42:30.149Z,967.9300
2023-09-23T09:43:32.303Z,967.9300
2023-09-23T09:44:34.436Z,967.9300
2023-09-23T09:45:36.608Z,967.9300
2023-09-23T09:46:38.836Z,967.9500
2023-09-23T09:47:41.135Z,967.9300
2023-09-23T09:48:43.271Z,967.9500
2023-09-23T09:49:45.463Z,967.9500
2023-09-23T09:50:47.677Z,967.9500
2023-09-23T09:51:49.937Z,967.9500
2023-09-23T09:52:52.306Z,967.9500
2023-09-23T09:53:54.432Z,967.9500
2023-09-23T09:54:56.549Z,967.9700
2023-09-23T09:55:58.772Z,967.9500
2023-09-23T09:57:00.998Z,967.9900
2023-09-23T09:58:03.234Z,967.9500
2023-09-23T09:59:05.558Z,967.9700
2023-09-23T10:00:07.834Z,967.9900
2023-09-23T10:01:10.136Z,967.9900
2023-09-23T10:02:12.411Z,967.9700
2023-09-23T10:03:12.713Z,968.0100
2023-09-23T10:04:14.729Z,968.0100
2023-09-23T10:05:17.045Z,967.9700
2023-09-23T10:06:19.225Z,967.9700
2023-09-23T10:07:21.422Z,967.9900
2023-09-23T10:08:23.701Z,967.9700
2023-09-23T10:09:25.949Z,968.0100
2023-09-23T10:10:28.172Z,967.9900
2023-09-23T10:11:30.517Z,968.0300
2023-09-23T10:12:32.705Z,967.9900
2023-09-23T10:13:32.851Z,968.0100
2023-09-23T10:14:35.290Z,968.0100
2023-09-23T10:15:37.321Z,967.9900
2023-09-23T10:16:39.636Z,967.9900
2023-09-23T10:17:41.946Z,968.0100
2023-09-23T10:18:44.274Z,967.9700
2023-09-23T10:19:46.343Z,967.9700
2023-09-23T10:20:48.520Z,967.9900
2023-09-23T10:21:50.748Z,967.9900
2023-09-23T10:22:53.031Z,967.9900
2023-09-23T10:23:52.983Z,967.9900
2023-09-23T10:24:55.281Z,967.9700
2023-09-23T10:25:57.396Z,967.9500
2023-09-23T10:26:59.587Z,967.9700
2023-09-23T10:28:01.797Z,967.9700
2023-09-23T10:29:04.041Z,967.9300
2023-09-23T10:30:06.258Z,967.9300
2023-09-23T10:31:08.571Z,967.9500
2023-09-23T10:32:10.719Z,967.9300
2023-09-23T10:33:12.996Z,967.9500
2023-09-23T10:34:15.196Z,967.9100
2023-09-23T10:35:17.533Z,967.8900
2023-09-23T10:36:17.555Z,967.9100
2023-09-23T10:37:19.800Z,967.9100
2023-09-23T10:38:22.109Z,967.8900
2023-09-23T10:39:24.343Z,967.8900
2023-09-23T10:40:26.602Z,967.8700
2023-09-23T10:41:28.777Z,967.8700
2023-09-23T10:42:30.938Z,967.8700
2023-09-23T10:43:33.190Z,967.8900
2023-09-23T10:44:35.512Z,967.8700
2023-09-23T10:45:37.708Z,967.8300
2023-09-23T10:46:40.038Z,967.8500
2023-09-23T10:47:40.068Z,967.8500
2023-09-23T10:48:42.247Z,967.8900
2023-09-23T10:49:44.515Z,967.8900
2023-09-23T10:50:46.829Z,967.8900
2023-09-23T10:51:49.102Z,967.8900
2023-09-23T10:52:51.365Z,967.8900
2023-09-23T10:53:53.638Z,967.8900
2023-09-23T10:54:55.905Z,967.9100
2023-09-23T10:55:58.238Z,967.9100
2023-09-23T10:57:00.443Z,967.9300
2023-09-23T10:58:02.767Z,967.9500
2023-09-23T10:59:05.049Z,967.9300
2023-09-23T11:00:07.294Z,967.9700
2023-09-23T11:01:09.620Z,967.9700
2023-09-23T11:02:11.921Z,967.9900
2023-09-23T11:03:12.187Z,968.0500
2023-09-23T11:04:14.313Z,968.0700
2023-09-23T11:05:16.577Z,968.0700
2023-09-23T11:06:18.815Z,968.0700
2023-09-23T11:07:21.045Z,968.1100
2023-09-23T11:08:23.402Z,968.0900
2023-09-23T11:09:26.529Z,968.0900
2023-09-23T11:10:27.927Z,968.0900
2023-09-23T11:11:28.120Z,968.0700
2023-09-23T11:12:30.243Z,968.0700
2023-09-23T11:13:32.508Z,968.0900
2023-09-23T11:14:34.773Z,968.0900
2023-09-23T11:15:37.015Z,968.0900
2023-09-23T11:16:39.300Z,968.0700
2023-09-23T11:17:41.623Z,968.0700
2023-09-23T11:18:43.868Z,968.0900
2023-09-23T11:19:44.678Z,968.0900
2023-09-23T11:20:46.353Z,968.0900
2023-09-23T11:21:48.616Z,968.0900
2023-09-23T11:22:50.873Z,968.1100
2023-09-23T11:23:53.139Z,968.1100
2023-09-23T11:24:55.436Z,968.0900
2023-09-23T11:25:57.776Z,968.1100
2023-09-23T11:26:58.069Z,968.0900
2023-09-23T11:28:00.267Z,968.0900
2023-09-23T11:29:02.469Z,968.0500
2023-09-23T11:30:04.750Z,968.0300
2023-09-23T11:31:07.042Z,968.0300
2023-09-23T11:32:07.351Z,968.0300
2023-09-23T11:33:09.590Z,968.0100
2023-09-23T11:34:11.831Z,968.0100
2023-09-23T11:35:14.124Z,967.9900
2023-09-23T11:36:16.392Z,967.9900
2023-09-23T11:37:18.676Z,967.9900
2023-09-23T11:38:20.990Z,967.9700
2023-09-23T11:39:23.249Z,967.9900
2023-09-23T11:40:23.392Z,967.9500
2023-09-23T11:41:25.694Z,967.9500
2023-09-23T11:42:28.003Z,967.9700
2023-09-23T11:43:30.209Z,967.9900
2023-09-23T11:44:33.263Z,968.0300
2023-09-23T11:45:34.871Z,967.9900
2023-09-23T11:46:34.931Z,967.9900
2023-09-23T11:47:37.291Z,967.9700
2023-09-23T11:48:39.449Z,967.9700
2023-09-23T11:49:41.729Z,967.9700
2023-09-23T11:50:44.047Z,967.9900
2023-09-23T11:51:46.320Z,968.0100
2023-09-23T11:52:48.668Z,968.0100
2023-09-23T11:53:50.845Z,968.0300
2023-09-23T11:54:50.986Z,968.0300
2023-09-23T11:55:53.174Z,968.0300
2023-09-23T11:56:55.427Z,967.9900
2023-09-23T11:57:57.780Z,967.9700
2023-09-23T11:59:08.275Z,968.0100
2023-09-23T12:00:02.285Z,967.9900
2023-09-23T12:01:04.575Z,967.9900
2023-09-23T12:02:06.926Z,967.9500
2023-09-23T12:03:07.106Z,967.9700
2023-09-23T12:04:09.427Z,967.9500
2023-09-23T12:05:11.847Z,967.9700
2023-09-23T12:06:14.035Z,967.9500
2023-09-23T12:07:16.277Z,967.9900
2023-09-23T12:08:16.496Z,968.0100
2023-09-23T12:09:18.722Z,968.0100
2023-09-23T12:10:21.012Z,968.0100
2023-09-23T12:11:23.381Z,968.0300
2023-09-23T12:12:25.592Z,968.0100
2023-09-23T12:13:27.941Z,968.0100
2023-09-23T12:14:30.245Z,967.9900
2023-09-23T12:15:30.309Z,967.9900